createdAt,value
2023-03-06T00:00:47.648Z,98954.59
2023-03-06T00:03:16.704Z,98950.91
2023-03-06T00:05:45.661Z,98943.50
2023-03-06T00:08:14.437Z,98936.13
2023-03-06T00:10:50.110Z,98934.35
2023-03-06T00:13:26.915Z,98931.89
2023-03-06T00:16:00.437Z,98935.35
2023-03-06T00:18:30.604Z,98934.63
2023-03-06T00:21:07.458Z,98929.26
2023-03-06T00:23:36.609Z,98937.14
2023-03-06T00:26:08.141Z,98934.70
2023-03-06T00:28:38.004Z,98940.95
2023-03-06T00:31:15.398Z,98940.84
2023-03-06T00:33:44.443Z,98941.05
2023-03-06T00:36:13.045Z,98941.42
2023-03-06T00:38:42.905Z,98941.39
2023-03-06T00:41:12.480Z,98943.81
2023-03-06T00:43:40.924Z,98950.04
2023-03-06T00:46:09.630Z,98947.63
2023-03-06T00:48:38.455Z,98952.16
2023-03-06T00:51:13.808Z,98949.47
2023-03-06T00:53:43.414Z,98954.82
2023-03-06T00:56:11.829Z,98953.98
2023-03-06T00:58:41.835Z,98953.13
2023-03-06T01:01:10.350Z,98955.05
2023-03-06T01:03:40.605Z,98959.04
2023-03-06T01:06:10.328Z,98958.50
2023-03-06T01:08:39.553Z,98960.19
2023-03-06T01:11:08.825Z,98961.61
2023-03-06T01:13:37.246Z,98953.52
2023-03-06T01:16:09.418Z,98951.67
2023-03-06T01:18:38.451Z,98943.63
2023-03-06T01:21:07.041Z,98942.99
2023-03-06T01:23:37.088Z,98939.48
2023-03-06T01:26:05.808Z,98936.66
2023-03-06T01:28:35.386Z,98933.90
2023-03-06T01:31:05.387Z,98936.92
2023-03-06T01:33:34.587Z,98934.89
2023-03-06T01:36:08.363Z,98933.38
2023-03-06T01:38:37.060Z,98933.94
2023-03-06T01:41:06.845Z,98930.92
2023-03-06T01:43:36.679Z,98929.02
2023-03-06T01:46:33.980Z,98931.70
2023-03-06T01:49:10.028Z,98928.41
2023-03-06T01:51:43.901Z,98927.16
2023-03-06T01:54:15.656Z,98925.64
2023-03-06T01:56:45.597Z,98924.06
2023-03-06T01:59:13.992Z,98922.90
2023-03-06T02:01:42.964Z,98923.27
2023-03-06T02:04:12.190Z,98919.08
2023-03-06T02:06:43.461Z,98916.78
2023-03-06T02:09:12.502Z,98920.34
2023-03-06T02:11:51.518Z,98916.94
2023-03-06T02:14:20.420Z,98917.97
2023-03-06T02:16:49.875Z,98914.48
2023-03-06T02:19:34.102Z,98920.41
2023-03-06T02:22:03.071Z,98918.65
2023-03-06T02:24:46.476Z,98918.52
2023-03-06T02:27:14.961Z,98916.08
2023-03-06T02:29:45.512Z,98918.06
2023-03-06T02:32:14.430Z,98918.02
2023-03-06T02:34:49.212Z,98919.65
2023-03-06T02:37:17.796Z,98920.45
2023-03-06T02:39:48.889Z,98917.45
2023-03-06T02:42:23.008Z,98917.36
2023-03-06T02:44:52.756Z,98916.25
2023-03-06T02:47:21.608Z,98917.58
2023-03-06T02:49:51.463Z,98921.17
2023-03-06T02:52:20.092Z,98925.56
2023-03-06T02:54:49.058Z,98926.63
2023-03-06T02:57:18.027Z,98925.29
2023-03-06T02:59:47.656Z,98924.46
2023-03-06T03:02:17.350Z,98921.65
2023-03-06T03:04:46.539Z,98923.31
2023-03-06T03:07:17.610Z,98922.05
2023-03-06T03:09:48.219Z,98918.65
2023-03-06T03:12:22.781Z,98918.45
2023-03-06T03:14:51.430Z,98912.73
2023-03-06T03:17:20.091Z,98909.39
2023-03-06T03:19:48.887Z,98910.55
2023-03-06T03:22:18.604Z,98904.50
2023-03-06T03:24:48.144Z,98907.27
2023-03-06T03:27:16.693Z,98906.45
2023-03-06T03:29:46.518Z,98903.55
2023-03-06T03:32:15.041Z,98899.11
2023-03-06T03:34:43.734Z,98899.11
2023-03-06T03:37:12.414Z,98894.77
2023-03-06T03:39:43.324Z,98899.48
2023-03-06T03:42:11.952Z,98901.14
2023-03-06T03:44:41.084Z,98899.95
2023-03-06T03:47:11.927Z,98902.09
2023-03-06T03:49:41.954Z,98901.13
2023-03-06T03:52:10.732Z,98899.52
2023-03-06T03:54:39.618Z,98896.58
2023-03-06T03:57:08.535Z,98898.05
2023-03-06T03:59:42.103Z,98896.45
2023-03-06T04:02:22.832Z,98889.50
2023-03-06T04:05:00.556Z,98888.81
2023-03-06T04:07:29.296Z,98892.25
2023-03-06T04:09:58.321Z,98892.08
2023-03-06T04:12:28.798Z,98895.23
2023-03-06T04:15:05.802Z,98903.30
2023-03-06T04:17:36.365Z,98901.04
2023-03-06T04:20:06.404Z,98904.52
2023-03-06T04:22:35.759Z,98904.30
2023-03-06T04:25:04.960Z,98905.13
2023-03-06T04:27:33.593Z,98902.79
2023-03-06T04:30:02.067Z,98901.32
2023-03-06T04:32:31.944Z,98899.58
2023-03-06T04:35:00.991Z,98902.13
2023-03-06T04:37:33.773Z,98904.85
2023-03-06T04:40:04.426Z,98908.73
2023-03-06T04:42:37.058Z,98905.53
2023-03-06T04:45:06.178Z,98899.70
2023-03-06T04:47:40.515Z,98897.85
2023-03-06T04:50:09.552Z,98898.63
2023-03-06T04:52:38.055Z,98895.04
2023-03-06T04:55:10.756Z,98894.65
2023-03-06T04:57:40.125Z,98895.45
2023-03-06T05:00:14.174Z,98897.66
2023-03-06T05:02:45.979Z,98897.59
2023-03-06T05:05:14.550Z,98896.84
2023-03-06T05:07:43.116Z,98885.44
2023-03-06T05:10:15.767Z,98877.56
2023-03-06T05:12:46.181Z,98869.66
2023-03-06T05:15:15.678Z,98868.36
2023-03-06T05:17:44.144Z,98861.63
2023-03-06T05:20:13.830Z,98855.04
2023-03-06T05:22:42.374Z,98848.04
2023-03-06T05:25:12.727Z,98833.36
2023-03-06T05:27:41.256Z,98829.73
2023-03-06T05:30:13.625Z,98823.64
2023-03-06T05:32:43.155Z,98819.23
2023-03-06T05:35:17.332Z,98814.75
2023-03-06T05:37:46.339Z,98820.31
2023-03-06T05:40:15.835Z,98835.52
2023-03-06T05:42:44.639Z,98859.92
2023-03-06T05:45:13.024Z,98881.54
2023-03-06T05:47:41.436Z,98896.15
2023-03-06T05:50:14.285Z,98909.70
2023-03-06T05:52:43.766Z,98919.75
2023-03-06T05:55:12.712Z,98929.45
2023-03-06T05:57:42.825Z,98947.25
2023-03-06T06:00:14.005Z,98966.98
2023-03-06T06:02:43.805Z,98978.95
2023-03-06T06:05:13.283Z,98994.70
2023-03-06T06:07:42.990Z,99000.73
2023-03-06T06:10:12.156Z,99009.30
2023-03-06T06:12:40.628Z,99017.52
2023-03-06T06:15:09.371Z,99027.95
2023-03-06T06:17:38.270Z,99039.90
2023-03-06T06:20:07.601Z,99045.80
2023-03-06T06:22:38.312Z,99049.76
2023-03-06T06:25:07.356Z,99058.33
2023-03-06T06:27:36.705Z,99057.88
2023-03-06T06:30:06.858Z,99062.98
2023-03-06T06:32:36.537Z,99066.13
2023-03-06T06:35:05.382Z,99067.95
2023-03-06T06:37:33.789Z,99072.49
2023-03-06T06:40:02.324Z,99074.83
2023-03-06T06:42:37.766Z,99076.83
2023-03-06T06:45:11.571Z,99082.98
2023-03-06T06:47:43.817Z,99086.55
2023-03-06T06:50:13.310Z,99087.39
2023-03-06T06:52:43.103Z,99094.89
2023-03-06T06:55:17.886Z,99098.22
2023-03-06T06:57:46.686Z,99101.80
2023-03-06T07:00:15.471Z,99102.98
2023-03-06T07:02:49.345Z,99103.04
2023-03-06T07:05:21.075Z,99104.37
2023-03-06T07:07:58.420Z,99107.98
2023-03-06T07:10:27.401Z,99100.80
2023-03-06T07:12:56.781Z,99104.63
2023-03-06T07:15:27.378Z,99109.70
2023-03-06T07:17:56.184Z,99095.29
2023-03-06T07:20:28.712Z,99063.18
2023-03-06T07:22:58.815Z,99060.11
2023-03-06T07:25:27.340Z,99061.98
2023-03-06T07:27:55.888Z,99063.92
2023-03-06T07:30:24.705Z,99069.71
2023-03-06T07:32:57.294Z,99068.30
2023-03-06T07:35:26.178Z,99071.08
2023-03-06T07:37:59.751Z,99059.85
2023-03-06T07:40:28.294Z,99051.67
2023-03-06T07:43:09.183Z,99045.30
2023-03-06T07:45:55.414Z,99037.77
2023-03-06T07:48:24.030Z,99013.08
2023-03-06T07:51:20.637Z,99010.27
2023-03-06T07:53:58.918Z,99005.98
2023-03-06T07:56:29.656Z,98998.65
2023-03-06T07:58:58.166Z,98998.86
2023-03-06T08:01:26.754Z,98989.25
2023-03-06T08:03:55.423Z,98993.98
2023-03-06T08:06:26.286Z,98998.50
2023-03-06T08:08:59.237Z,99011.55
2023-03-06T08:11:30.885Z,99010.17
2023-03-06T08:14:01.265Z,99021.14
2023-03-06T08:16:37.676Z,99034.73
2023-03-06T08:19:06.341Z,99037.95
2023-03-06T08:21:35.066Z,99041.59
2023-03-06T08:24:03.912Z,99051.25
2023-03-06T08:26:37.105Z,99063.34
2023-03-06T08:29:06.811Z,99062.78
2023-03-06T08:31:45.456Z,99073.37
2023-03-06T08:34:16.654Z,99071.45
2023-03-06T08:36:50.710Z,99077.50
2023-03-06T08:39:19.647Z,99079.19
2023-03-06T08:41:48.682Z,99080.47
2023-03-06T08:44:17.343Z,99082.45
2023-03-06T08:46:46.656Z,99083.27
2023-03-06T08:49:15.583Z,99079.98
2023-03-06T08:51:44.264Z,99080.42
2023-03-06T08:54:23.377Z,99079.03
2023-03-06T08:56:52.346Z,99080.96
2023-03-06T08:59:20.847Z,99080.00
2023-03-06T09:01:49.269Z,99080.77
2023-03-06T09:04:37.649Z,99083.19
2023-03-06T09:07:07.890Z,99075.80
2023-03-06T09:09:36.614Z,99073.20
2023-03-06T09:12:05.591Z,99064.80
2023-03-06T09:14:34.020Z,99068.37
2023-03-06T09:17:02.588Z,99082.13
2023-03-06T09:19:31.158Z,99084.13
2023-03-06T09:22:01.284Z,99093.23
2023-03-06T09:24:30.922Z,99103.70
2023-03-06T09:26:59.413Z,99119.44
2023-03-06T09:29:28.643Z,99129.33
2023-03-06T09:31:57.373Z,99134.89
2023-03-06T09:34:27.912Z,99130.97
2023-03-06T09:37:03.286Z,99136.77
2023-03-06T09:39:32.807Z,99140.55
2023-03-06T09:42:03.910Z,99147.38
2023-03-06T09:44:34.557Z,99157.67
2023-03-06T09:47:37.627Z,99166.03
2023-03-06T09:50:31.430Z,99175.60
2023-03-06T09:53:22.209Z,99184.84
2023-03-06T09:56:00.675Z,99192.27
2023-03-06T09:58:35.446Z,99190.20
2023-03-06T10:01:39.004Z,99204.75
2023-03-06T10:04:50.890Z,99215.41
2023-03-06T10:07:33.696Z,99225.64
2023-03-06T10:10:06.796Z,99229.93
2023-03-06T10:12:40.382Z,99223.90
2023-03-06T10:15:31.759Z,99230.60
2023-03-06T10:18:13.224Z,99230.90
2023-03-06T10:21:07.416Z,99235.05
2023-03-06T10:23:54.938Z,99239.60
2023-03-06T10:26:42.953Z,99235.76
2023-03-06T10:29:11.544Z,99233.22
2023-03-06T10:31:45.056Z,99237.62
2023-03-06T10:34:24.303Z,99236.91
2023-03-06T10:36:53.189Z,99227.69
2023-03-06T10:39:23.258Z,99223.21
2023-03-06T10:41:52.130Z,99225.33
2023-03-06T10:44:21.511Z,99225.50
2023-03-06T10:46:51.861Z,99234.55
2023-03-06T10:49:30.479Z,99238.86
2023-03-06T10:52:15.181Z,99230.10
2023-03-06T10:54:46.142Z,99241.54
2023-03-06T10:57:31.938Z,99247.20
2023-03-06T11:00:05.780Z,99244.88
2023-03-06T11:02:41.222Z,99244.29
2023-03-06T11:05:20.296Z,99240.99
2023-03-06T11:08:04.040Z,99240.65
2023-03-06T11:10:35.853Z,99242.48
2023-03-06T11:13:20.579Z,99238.19
2023-03-06T11:16:03.468Z,99239.09
2023-03-06T11:18:37.355Z,99230.53
2023-03-06T11:21:24.412Z,99220.21
2023-03-06T11:23:52.908Z,99215.59
2023-03-06T11:26:31.452Z,99213.82
2023-03-06T11:29:27.062Z,99217.03
2023-03-06T11:31:56.733Z,99213.08
2023-03-06T11:34:47.678Z,99209.64
2023-03-06T11:37:51.433Z,99212.04
2023-03-06T11:40:32.788Z,99212.95
2023-03-06T11:43:21.728Z,99213.98
2023-03-06T11:45:58.016Z,99217.12
2023-03-06T11:48:31.829Z,99221.53
2023-03-06T11:51:07.545Z,99221.27
2023-03-06T11:53:40.259Z,99220.92
2023-03-06T11:56:15.012Z,99220.55
2023-03-06T11:59:10.072Z,99223.20
2023-03-06T12:01:57.854Z,99223.16
2023-03-06T12:04:58.819Z,99227.11
2023-03-06T12:07:35.352Z,99233.30
2023-03-06T12:10:59.872Z,99234.53
2023-03-06T12:13:35.236Z,99237.70
2023-03-06T12:16:07.722Z,99236.59
2023-03-06T12:18:49.839Z,99235.35
2023-03-06T12:21:32.711Z,99242.40
2023-03-06T12:24:04.196Z,99238.39
2023-03-06T12:26:42.123Z,99242.28
2023-03-06T12:29:36.223Z,99242.65
2023-03-06T12:32:17.258Z,99248.27
2023-03-06T12:34:51.147Z,99248.86
2023-03-06T12:37:25.784Z,99248.21
2023-03-06T12:40:10.219Z,99241.73
2023-03-06T12:42:58.567Z,99237.02
2023-03-06T12:45:34.177Z,99233.73
2023-03-06T12:48:35.794Z,99237.31
2023-03-06T12:51:16.300Z,99247.39
2023-03-06T12:53:45.074Z,99254.06
2023-03-06T12:56:17.377Z,99255.86
2023-03-06T12:58:53.246Z,99261.15
2023-03-06T13:01:43.607Z,99255.61
2023-03-06T13:04:12.346Z,99256.39
2023-03-06T13:07:05.556Z,99259.84
2023-03-06T13:10:00.713Z,99265.55
2023-03-06T13:12:50.257Z,99268.75
2023-03-06T13:15:46.249Z,99272.85
2023-03-06T13:18:24.349Z,99274.27
2023-03-06T13:20:56.374Z,99280.34
2023-03-06T13:23:33.982Z,99280.81
2023-03-06T13:26:04.562Z,99285.66
2023-03-06T13:28:41.417Z,99289.36
2023-03-06T13:31:26.454Z,99288.40
2023-03-06T13:34:01.437Z,99292.15
2023-03-06T13:36:34.039Z,99300.45
2023-03-06T13:39:09.403Z,99305.41
2023-03-06T13:41:55.645Z,99311.36
2023-03-06T13:44:24.702Z,99316.50
2023-03-06T13:47:25.135Z,99323.42
2023-03-06T13:49:53.641Z,99321.27
2023-03-06T13:52:48.569Z,99320.42
2023-03-06T13:55:29.595Z,99318.09
2023-03-06T13:58:27.545Z,99322.63
2023-03-06T14:01:02.504Z,99325.02
2023-03-06T14:03:57.885Z,99330.60
2023-03-06T14:06:35.771Z,99333.30
2023-03-06T14:09:14.039Z,99338.45
2023-03-06T14:11:47.799Z,99342.82
2023-03-06T14:14:16.574Z,99351.46
2023-03-06T14:16:50.335Z,99348.20
2023-03-06T14:19:19.275Z,99347.95
2023-03-06T14:21:49.851Z,99351.96
2023-03-06T14:24:20.091Z,99356.82
2023-03-06T14:26:51.229Z,99358.35
2023-03-06T14:29:21.742Z,99362.64
2023-03-06T14:31:52.098Z,99370.20
2023-03-06T14:34:25.336Z,99373.52
2023-03-06T14:36:55.488Z,99374.05
2023-03-06T14:39:45.074Z,99385.83
2023-03-06T14:42:19.436Z,99390.64
2023-03-06T14:44:49.622Z,99389.58
2023-03-06T14:47:33.503Z,99396.11
2023-03-06T14:50:34.239Z,99398.38
2023-03-06T14:53:10.901Z,99402.23
2023-03-06T14:55:42.722Z,99405.60
2023-03-06T14:58:25.557Z,99408.33
2023-03-06T15:00:55.361Z,99410.92
2023-03-06T15:03:55.433Z,99411.40
2023-03-06T15:06:35.529Z,99415.02
2023-03-06T15:09:29.475Z,99421.91
2023-03-06T15:12:09.033Z,99423.20
2023-03-06T15:14:39.849Z,99422.67
2023-03-06T15:17:17.853Z,99428.59
2023-03-06T15:19:52.587Z,99437.53
2023-03-06T15:22:42.951Z,99438.55
2023-03-06T15:25:22.561Z,99444.13
2023-03-06T15:27:53.816Z,99446.63
2023-03-06T15:30:30.930Z,99445.83
2023-03-06T15:33:19.854Z,99448.73
2023-03-06T15:36:06.761Z,99449.21
2023-03-06T15:38:43.961Z,99450.20
2023-03-06T15:41:30.562Z,99451.11
2023-03-06T15:44:00.376Z,99451.98
2023-03-06T15:46:29.907Z,99446.77
2023-03-06T15:49:01.813Z,99450.39
2023-03-06T15:51:32.072Z,99452.73
2023-03-06T15:54:11.863Z,99450.46
2023-03-06T15:56:45.800Z,99450.83
2023-03-06T15:59:26.353Z,99450.09
2023-03-06T16:01:55.506Z,99453.00
2023-03-06T16:04:24.285Z,99454.14
2023-03-06T16:06:52.828Z,99456.69
2023-03-06T16:09:22.893Z,99455.49
2023-03-06T16:11:52.259Z,99458.39
2023-03-06T16:14:24.078Z,99460.73
2023-03-06T16:16:54.333Z,99460.43
2023-03-06T16:19:26.426Z,99464.17
2023-03-06T16:21:56.252Z,99465.34
2023-03-06T16:24:26.503Z,99464.86
2023-03-06T16:26:55.213Z,99466.42
2023-03-06T16:29:25.666Z,99469.73
2023-03-06T16:31:55.427Z,99471.38
2023-03-06T16:34:24.413Z,99473.34
2023-03-06T16:36:53.749Z,99478.65
2023-03-06T16:39:23.080Z,99477.54
2023-03-06T16:41:56.270Z,99479.23
2023-03-06T16:44:25.616Z,99474.39
2023-03-06T16:46:54.026Z,99468.77
2023-03-06T16:49:24.268Z,99472.35
2023-03-06T16:51:53.778Z,99469.70
2023-03-06T16:54:24.504Z,99469.73
2023-03-06T16:56:52.886Z,99467.91
2023-03-06T16:59:25.187Z,99470.52
2023-03-06T17:01:53.600Z,99473.41
2023-03-06T17:04:22.023Z,99472.77
2023-03-06T17:06:53.583Z,99476.11
2023-03-06T17:09:22.243Z,99478.08
2023-03-06T17:11:50.711Z,99479.13
2023-03-06T17:14:19.682Z,99484.05
2023-03-06T17:16:48.443Z,99483.56
2023-03-06T17:19:17.027Z,99480.77
2023-03-06T17:21:45.690Z,99481.09
2023-03-06T17:24:14.133Z,99484.60
2023-03-06T17:26:43.684Z,99488.83
2023-03-06T17:29:12.401Z,99491.73
2023-03-06T17:31:40.784Z,99493.45
2023-03-06T17:34:09.642Z,99491.63
2023-03-06T17:36:38.343Z,99496.30
2023-03-06T17:39:06.857Z,99502.25
2023-03-06T17:41:35.883Z,99501.55
2023-03-06T17:44:06.291Z,99502.86
2023-03-06T17:46:35.592Z,99507.88
2023-03-06T17:49:03.982Z,99507.73
2023-03-06T17:51:32.926Z,99507.38
2023-03-06T17:54:01.309Z,99510.29
2023-03-06T17:56:31.554Z,99521.00
2023-03-06T17:59:00.513Z,99521.40
2023-03-06T18:01:30.781Z,99519.19
2023-03-06T18:04:04.963Z,99521.85
2023-03-06T18:06:34.940Z,99522.41
2023-03-06T18:09:05.167Z,99520.91
2023-03-06T18:11:33.886Z,99523.23
2023-03-06T18:14:04.429Z,99520.63
2023-03-06T18:16:51.045Z,99523.11
2023-03-06T18:19:19.627Z,99528.48
2023-03-06T18:21:48.052Z,99524.91
2023-03-06T18:24:17.401Z,99528.23
2023-03-06T18:26:46.127Z,99527.63
2023-03-06T18:29:14.794Z,99528.18
2023-03-06T18:31:43.683Z,99524.67
2023-03-06T18:34:14.095Z,99525.48
2023-03-06T18:36:47.276Z,99527.35
2023-03-06T18:39:15.997Z,99531.83
2023-03-06T18:41:46.610Z,99531.77
2023-03-06T18:44:16.494Z,99534.15
2023-03-06T18:46:45.526Z,99535.64
2023-03-06T18:49:18.057Z,99534.79
2023-03-06T18:51:51.488Z,99536.38
2023-03-06T18:54:19.912Z,99539.10
2023-03-06T18:56:48.632Z,99541.33
2023-03-06T18:59:38.128Z,99541.92
2023-03-06T19:02:06.980Z,99540.02
2023-03-06T19:04:36.278Z,99539.51
2023-03-06T19:07:05.656Z,99542.69
2023-03-06T19:09:34.149Z,99545.46
2023-03-06T19:12:03.769Z,99544.55
2023-03-06T19:14:33.067Z,99543.27
2023-03-06T19:17:02.244Z,99543.39
2023-03-06T19:19:33.653Z,99544.05
2023-03-06T19:22:03.022Z,99542.98
2023-03-06T19:24:36.856Z,99544.84
2023-03-06T19:27:05.502Z,99543.94
2023-03-06T19:29:35.861Z,99542.31
2023-03-06T19:32:14.009Z,99540.36
2023-03-06T19:34:43.989Z,99539.08
2023-03-06T19:37:17.914Z,99538.36
2023-03-06T19:39:50.083Z,99531.10
2023-03-06T19:42:21.041Z,99526.67
2023-03-06T19:44:49.478Z,99524.69
2023-03-06T19:47:17.830Z,99515.73
2023-03-06T19:49:46.676Z,99513.16
2023-03-06T19:52:15.444Z,99508.91
2023-03-06T19:54:47.273Z,99502.75
2023-03-06T19:57:15.965Z,99499.73
2023-03-06T19:59:51.616Z,99493.84
2023-03-06T20:02:22.637Z,99489.73
2023-03-06T20:04:51.625Z,99483.83
2023-03-06T20:07:20.504Z,99480.35
2023-03-06T20:09:50.341Z,99480.44
2023-03-06T20:12:18.738Z,99476.44
2023-03-06T20:14:47.389Z,99479.49
2023-03-06T20:17:15.773Z,99485.68
2023-03-06T20:19:45.326Z,99485.12
2023-03-06T20:22:13.700Z,99476.66
2023-03-06T20:24:43.289Z,99479.52
2023-03-06T20:27:11.919Z,99482.16
2023-03-06T20:29:44.824Z,99479.04
2023-03-06T20:32:18.410Z,99472.64
2023-03-06T20:34:47.100Z,99469.45
2023-03-06T20:37:15.476Z,99466.91
2023-03-06T20:39:43.885Z,99463.09
2023-03-06T20:42:12.384Z,99460.10
2023-03-06T20:44:40.830Z,99457.24
2023-03-06T20:47:09.902Z,99452.66
2023-03-06T20:49:38.678Z,99445.15
2023-03-06T20:52:07.069Z,99442.38
2023-03-06T20:54:35.968Z,99435.51
2023-03-06T20:57:04.449Z,99430.61
2023-03-06T20:59:33.023Z,99429.07
2023-03-06T21:02:01.472Z,99429.67
2023-03-06T21:04:30.396Z,99426.74
2023-03-06T21:06:59.152Z,99423.00
2023-03-06T21:09:27.739Z,99421.16
2023-03-06T21:11:57.129Z,99420.42
2023-03-06T21:14:25.535Z,99414.88
2023-03-06T21:16:53.984Z,99407.96
2023-03-06T21:19:27.356Z,99400.43
2023-03-06T21:21:55.822Z,99400.23
2023-03-06T21:24:24.236Z,99395.46
2023-03-06T21:26:52.786Z,99385.95
2023-03-06T21:29:21.921Z,99382.24
2023-03-06T21:31:57.240Z,99382.65
2023-03-06T21:34:25.684Z,99374.17
2023-03-06T21:36:54.106Z,99373.58
2023-03-06T21:39:22.817Z,99369.84
2023-03-06T21:41:52.025Z,99368.67
2023-03-06T21:44:20.419Z,99362.30
2023-03-06T21:46:49.004Z,99358.77
2023-03-06T21:49:18.443Z,99354.75
2023-03-06T21:51:47.997Z,99348.80
2023-03-06T21:54:16.504Z,99346.10
2023-03-06T21:56:45.503Z,99342.67
2023-03-06T21:59:14.053Z,99339.36
2023-03-06T22:01:42.978Z,99339.94
2023-03-06T22:04:11.362Z,99338.98
2023-03-06T22:06:40.749Z,99339.83
2023-03-06T22:09:10.047Z,99339.42
2023-03-06T22:11:38.537Z,99341.29
2023-03-06T22:14:08.540Z,99337.05
2023-03-06T22:16:39.094Z,99335.63
2023-03-06T22:19:07.986Z,99335.55
2023-03-06T22:21:36.418Z,99336.40
2023-03-06T22:24:06.511Z,99332.96
2023-03-06T22:26:35.173Z,99336.27
2023-03-06T22:29:07.727Z,99340.02
2023-03-06T22:31:39.896Z,99340.30
2023-03-06T22:34:09.613Z,99336.55
2023-03-06T22:36:57.893Z,99343.63
2023-03-06T22:39:26.917Z,99333.86
2023-03-06T22:41:55.917Z,99331.70
2023-03-06T22:44:24.318Z,99329.93
2023-03-06T22:46:53.716Z,99325.37
2023-03-06T22:49:22.036Z,99329.17
2023-03-06T22:51:50.554Z,99326.60
2023-03-06T22:54:20.969Z,99325.91
2023-03-06T22:56:50.346Z,99326.00
2023-03-06T22:59:19.056Z,99328.25
2023-03-06T23:01:48.765Z,99328.17
2023-03-06T23:04:17.377Z,99318.86
2023-03-06T23:06:50.367Z,99321.00
2023-03-06T23:09:21.613Z,99320.15
2023-03-06T23:12:11.687Z,99325.73
2023-03-06T23:15:00.022Z,99322.23
2023-03-06T23:17:47.532Z,99320.94
2023-03-06T23:20:42.362Z,99319.44
2023-03-06T23:23:36.287Z,99317.36
2023-03-06T23:26:05.936Z,99319.38
2023-03-06T23:28:35.258Z,99313.77
2023-03-06T23:31:09.070Z,99311.59
2023-03-06T23:33:38.973Z,99315.03
2023-03-06T23:36:12.132Z,99312.77
2023-03-06T23:38:40.885Z,99311.23
2023-03-06T23:41:11.959Z,99307.12
2023-03-06T23:43:41.396Z,99304.63
2023-03-06T23:46:10.232Z,99301.56
2023-03-06T23:48:39.737Z,99296.30
2023-03-06T23:51:16.299Z,99293.95
2023-03-06T23:53:47.792Z,99292.41
2023-03-06T23:56:16.369Z,99284.70
2023-03-06T23:58:45.980Z,99283.19
